Csl Melbourne — 8PWP — position and weather

sailwx.info

Track history (hours):
 
Tides and Currents Weather Stations Pressure Air Temp Water Temp Dewpoint Dewpoint Depression Visibility Wind Speed Wind Dir Waves Ship Positions

Csl Melbourne

Last reported at 2016-Feb-06 21:16 UTC. Time now 2016-Feb-11 23:20 UTC.
Position S 27°18' E 153°47'.

Length 187 m; draft 6.6 m.

Type: Cargo ship. MMSI: 314317000.

Date/timePositionNaut miles runAvg speedWind from/ knotsBaromVisibWave heightAir tempDewpointWater temp
2016-Feb-06 21:16S 27°18' E 153°47'8 8.7
2016-Feb-06 20:21S 27°26' E 153°47'7 9.0
2016-Feb-06 19:33S 27°33' E 153°46'1110.5
2016-Feb-06 18:31S 27°43' E 153°44'1111.2
2016-Feb-06 17:33S 27°54' E 153°43'1211.5
2016-Feb-06 16:33S 28°06' E 153°43'248 9.8
2016-Feb-05 15:09S 32°08' E 152°46'16 9.9
2016-Feb-05 13:33S 32°24' E 152°41'1010.1
2016-Feb-05 12:33S 32°31' E 152°33'1111.4
2016-Feb-05 11:33S 32°40' E 152°25'1111.1
2016-Feb-05 10:33S 32°48' E 152°16'1111.1
2016-Feb-05 09:33S 32°53' E 152°04'10 9.9
2016-Feb-05 08:33S 32°57' E 151°53'5 5.5
2016-Feb-05 07:33S 32°55' E 151°47'2 1.7
2016-Feb-05 06:31S 32°54' E 151°46'0 0.0
2016-Feb-05 05:31S 32°54' E 151°46'0 0.0
2016-Feb-05 04:31S 32°54' E 151°46'0 0.0
2016-Feb-05 03:31S 32°54' E 151°46'0 0.0
2016-Feb-05 02:31S 32°54' E 151°46'0 0.0
2016-Feb-05 01:28S 32°54' E 151°46'0 0.0
2016-Feb-05 00:31S 32°54' E 151°46'0 0.0
2016-Feb-04 23:31S 32°54' E 151°46'0 0.0
2016-Feb-04 22:28S 32°54' E 151°46'0 0.0
2016-Feb-04 21:31S 32°54' E 151°46'0 0.0
2016-Feb-04 20:31S 32°54' E 151°46'0 0.0
2016-Feb-04 19:31S 32°54' E 151°46'0 0.0
2016-Feb-04 18:31S 32°54' E 151°46'0 0.0
2016-Feb-04 17:28S 32°54' E 151°46'0 0.0
2016-Feb-04 16:31S 32°54' E 151°46'0 0.0
2016-Feb-04 15:31S 32°54' E 151°46'0 0.0
2016-Feb-04 14:31S 32°54' E 151°46'0 0.0
2016-Feb-04 13:31S 32°54' E 151°46'0 0.0
2016-Feb-04 12:31S 32°54' E 151°46'0 0.0
2016-Feb-04 11:28S 32°54' E 151°46'0 0.0
2016-Feb-04 10:31S 32°54' E 151°46'0 0.0
2016-Feb-04 09:31S 32°54' E 151°46'0 0.0
2016-Feb-04 08:31S 32°54' E 151°46'0 0.0
2016-Feb-04 07:31S 32°54' E 151°46'0 0.0
2016-Feb-04 06:28S 32°54' E 151°46'0 0.0
2016-Feb-04 05:31S 32°54' E 151°46'0 0.0
2016-Feb-04 04:31S 32°54' E 151°46'0 0.0
2016-Feb-04 03:28S 32°54' E 151°46'0 0.0
2016-Feb-04 02:28S 32°54' E 151°46'0 0.0
2016-Feb-04 01:22S 32°54' E 151°46'0 0.0
2016-Feb-04 00:31S 32°54' E 151°46'0 0.0
2016-Feb-03 23:28S 32°54' E 151°46'0 0.0
2016-Feb-03 22:31S 32°54' E 151°46'0 0.0
2016-Feb-03 21:31S 32°54' E 151°46'0 0.0
2016-Feb-03 20:31S 32°54' E 151°46'0 0.0
2016-Feb-03 19:22S 32°54' E 151°46'0 0.0
2016-Feb-03 18:31S 32°54' E 151°46'0 0.0
2016-Feb-03 17:31S 32°54' E 151°46'0 0.0
2016-Feb-03 16:28S 32°54' E 151°46'0 0.0
2016-Feb-03 15:31S 32°54' E 151°46'0 0.0
2016-Feb-03 14:31S 32°54' E 151°46'0 0.0
2016-Feb-03 13:31S 32°54' E 151°46'0 0.0
2016-Feb-03 12:31S 32°54' E 151°46'0 0.0
2016-Feb-03 11:31S 32°54' E 151°46'0 0.0
2016-Feb-03 10:31S 32°54' E 151°46'0 0.0
2016-Feb-03 09:31S 32°54' E 151°46'0 0.0
2016-Feb-03 08:31S 32°54' E 151°46'0 0.0
2016-Feb-03 07:31S 32°54' E 151°46'0 0.0
2016-Feb-03 06:28S 32°54' E 151°46'0 0.0
2016-Feb-03 05:31S 32°54' E 151°46'0 0.0
2016-Feb-03 04:28S 32°54' E 151°46'0 0.0
2016-Feb-03 03:31S 32°54' E 151°46'0 0.0
2016-Feb-03 02:31S 32°54' E 151°46'0 0.0
2016-Feb-03 01:31S 32°54' E 151°46'0 0.0
2016-Feb-03 00:31S 32°54' E 151°46'0 0.0
2016-Feb-02 23:28S 32°54' E 151°46'0 0.0
2016-Feb-02 22:22S 32°54' E 151°46'0 0.0
2016-Feb-02 21:31S 32°54' E 151°46'0 0.0
2016-Feb-02 20:31S 32°54' E 151°46'0 0.0
2016-Feb-02 19:28S 32°54' E 151°46'0 0.0
2016-Feb-02 18:25S 32°54' E 151°46'0 0.0
2016-Feb-02 17:31S 32°54' E 151°46'0 0.1
2016-Feb-02 16:31S 32°54' E 151°46'0 0.1
2016-Feb-02 15:31S 32°54' E 151°46'0 0.0
2016-Feb-02 14:31S 32°54' E 151°46'0 0.0
2016-Feb-02 13:31S 32°54' E 151°46'0 0.0
2016-Feb-02 12:31S 32°54' E 151°46'0 0.0
2016-Feb-02 11:25S 32°54' E 151°46'0 0.0
2016-Feb-02 10:31S 32°54' E 151°46'0 0.0
2016-Feb-02 09:28S 32°54' E 151°46'0 0.0
2016-Feb-02 08:31S 32°54' E 151°46'0 0.0
2016-Feb-02 07:28S 32°54' E 151°46'0 0.0
2016-Feb-02 06:28S 32°54' E 151°46'0 0.0
2016-Feb-02 05:28S 32°54' E 151°46'0 0.0
2016-Feb-02 04:31S 32°54' E 151°46'0 0.0
2016-Feb-02 03:31S 32°54' E 151°46'0 0.0
2016-Feb-02 02:31S 32°54' E 151°46'0 0.0
2016-Feb-02 01:31S 32°54' E 151°46'0 0.0
2016-Feb-02 00:31S 32°54' E 151°46'0 0.0
2016-Feb-01 23:28S 32°54' E 151°46'0 0.0
2016-Feb-01 22:31S 32°54' E 151°46'0 0.0
2016-Feb-01 21:28S 32°54' E 151°46'0 0.0
2016-Feb-01 20:28S 32°54' E 151°46'0 0.0
2016-Feb-01 19:28S 32°54' E 151°46'0 0.0
2016-Feb-01 18:31S 32°54' E 151°46'0 0.0
2016-Feb-01 17:31S 32°54' E 151°46'0 0.0
2016-Feb-01 16:28S 32°54' E 151°46'0 0.0
2016-Feb-01 15:31S 32°54' E 151°46'0 0.0
2016-Feb-01 14:31S 32°54' E 151°46'0 0.0
2016-Feb-01 13:31S 32°54' E 151°46'0 0.0
2016-Feb-01 12:31S 32°54' E 151°46'0 0.0
2016-Feb-01 11:31S 32°54' E 151°46'0 0.0
2016-Feb-01 10:31S 32°54' E 151°46'0 0.0
2016-Feb-01 09:31S 32°54' E 151°46'0 0.0
2016-Feb-01 08:31S 32°54' E 151°46'0 0.0
2016-Feb-01 07:31S 32°54' E 151°46'0 0.0
2016-Feb-01 06:31S 32°54' E 151°46'0 0.0
2016-Feb-01 05:31S 32°54' E 151°46'0 0.0
2016-Feb-01 04:28S 32°54' E 151°46'0 0.0
2016-Feb-01 03:31S 32°54' E 151°46'0 0.0
2016-Jan-31 22:13S 32°54' E 151°46'0 0.0
2016-Jan-31 21:31S 32°54' E 151°46'0 0.0
2016-Jan-31 20:28S 32°54' E 151°46'0 0.0
2016-Jan-31 19:28S 32°54' E 151°46'0 0.0
2016-Jan-31 18:28S 32°54' E 151°46'0 0.0
2016-Jan-31 17:22S 32°54' E 151°46'0 0.0
2016-Jan-31 16:16S 32°54' E 151°46'0 0.0
2016-Jan-31 15:10S 32°54' E 151°46'0 0.0
2016-Jan-31 14:28S 32°54' E 151°46'0 0.0
2016-Jan-31 13:13S 32°54' E 151°46'0 0.0
2016-Jan-31 10:19S 32°54' E 151°46'0 0.0
2016-Jan-31 09:28S 32°54' E 151°46'0 0.0
2016-Jan-31 08:31S 32°54' E 151°46'0 0.0
2016-Jan-31 07:10S 32°54' E 151°46'0 0.0
2016-Jan-31 06:31S 32°54' E 151°46'0 0.0
2016-Jan-31 05:31S 32°54' E 151°46'0 0.0
2016-Jan-31 04:28S 32°54' E 151°46'0 0.0
2016-Jan-30 22:28S 32°54' E 151°46'0 0.0
2016-Jan-30 21:31S 32°54' E 151°46'0 0.0
2016-Jan-30 20:31S 32°54' E 151°46'0 0.0
2016-Jan-30 19:31S 32°54' E 151°46'0 0.0
2016-Jan-30 18:31S 32°54' E 151°46'0 0.0
2016-Jan-30 17:31S 32°54' E 151°46'0 0.0
2016-Jan-30 16:28S 32°54' E 151°46'0 0.0
2016-Jan-30 15:28S 32°54' E 151°46'0 0.0
2016-Jan-30 14:28S 32°54' E 151°46'0 0.0
2016-Jan-30 13:28S 32°54' E 151°46'0 0.0
2016-Jan-30 11:22S 32°54' E 151°46'0 0.0
2016-Jan-30 10:28S 32°54' E 151°46'0 0.0
2016-Jan-30 09:31S 32°54' E 151°46'0 0.0
2016-Jan-30 08:31S 32°54' E 151°46'0 0.0
2016-Jan-30 07:31S 32°54' E 151°46'0 0.0
2016-Jan-30 06:31S 32°54' E 151°46'0 0.0
2016-Jan-30 05:31S 32°54' E 151°46'0 0.0
2016-Jan-30 04:31S 32°54' E 151°46'0 0.0
2016-Jan-30 03:31S 32°54' E 151°46'0 0.0
2016-Jan-30 02:25S 32°54' E 151°46'0 0.0
2016-Jan-30 01:28S 32°54' E 151°46'0 0.0
2016-Jan-30 00:28S 32°54' E 151°46'0 0.0
2016-Jan-29 23:31S 32°54' E 151°46'0 0.0
2016-Jan-29 22:31S 32°54' E 151°46'0 0.0
2016-Jan-29 21:28S 32°54' E 151°46'0 0.0
2016-Jan-29 20:31S 32°54' E 151°46'0 0.0
2016-Jan-29 19:31S 32°54' E 151°46'0 0.0
2016-Jan-29 18:19S 32°54' E 151°46'0 0.0
2016-Jan-29 17:28S 32°54' E 151°46'0 0.0
2016-Jan-29 16:31S 32°54' E 151°46'0 0.0
2016-Jan-29 15:31S 32°54' E 151°46'0 0.0
2016-Jan-29 14:28S 32°54' E 151°46'0 0.0
2016-Jan-29 13:28S 32°54' E 151°46'0 0.0
2016-Jan-29 12:22S 32°54' E 151°46'0 0.0
2016-Jan-29 11:31S 32°54' E 151°46'0 0.0
2016-Jan-29 10:22S 32°54' E 151°46'0 0.0
2016-Jan-29 09:31S 32°54' E 151°46'0 0.0
2016-Jan-29 08:31S 32°54' E 151°46'0 0.0
2016-Jan-29 07:31S 32°54' E 151°46'0 0.0
2016-Jan-29 06:31S 32°54' E 151°46'0 0.0
2016-Jan-29 05:31S 32°54' E 151°46'0 0.0
2016-Jan-29 04:31S 32°54' E 151°46'0 0.0
2016-Jan-29 03:31S 32°54' E 151°46'0 0.0
2016-Jan-29 02:19S 32°54' E 151°46'0 0.0
2016-Jan-29 01:31S 32°54' E 151°46'0 0.0
2016-Jan-29 00:31S 32°54' E 151°46'0 0.0
2016-Jan-28 23:31S 32°54' E 151°46'0 0.0
2016-Jan-28 22:31S 32°54' E 151°46'0 0.0
2016-Jan-28 21:31S 32°54' E 151°46'0 0.0
2016-Jan-28 20:31S 32°54' E 151°46'0 0.0
2016-Jan-28 19:31S 32°54' E 151°46'0 0.0
2016-Jan-28 18:31S 32°54' E 151°46'0 0.0
2016-Jan-28 17:31S 32°54' E 151°46'0 0.0
2016-Jan-28 16:28S 32°54' E 151°46'0 0.0
2016-Jan-28 15:31S 32°54' E 151°46'0 0.0
2016-Jan-28 14:31S 32°54' E 151°46'0 0.0
2016-Jan-28 13:31S 32°54' E 151°46'0 0.0
2016-Jan-28 12:31S 32°54' E 151°46'0 0.0
2016-Jan-28 09:10S 32°54' E 151°46'0 0.0
2016-Jan-28 08:31S 32°54' E 151°46'0 0.0
2016-Jan-28 06:31S 32°54' E 151°46'0 0.0
2016-Jan-28 05:13S 32°54' E 151°46'0 0.0
2016-Jan-28 04:07S 32°54' E 151°46'0 0.0
2016-Jan-28 03:31S 32°54' E 151°46'0 0.0
2016-Jan-28 02:19S 32°54' E 151°46'  
Track history (hours):
 
Tides and Currents Weather Stations Pressure Air Temp Water Temp Dewpoint Dewpoint Depression Visibility Wind Speed Wind Dir Waves Ship Positions

Csl Melbourne

Last reported at 2016-Feb-06 21:16 UTC. Time now 2016-Feb-11 23:20 UTC.
Position S 27°18' E 153°47'.

Length 187 m; draft 6.6 m.

Type: Cargo ship. MMSI: 314317000.

Date/timePositionNaut miles runAvg speedWind from/ knotsBaromVisibWave heightAir tempDewpointWater temp
2016-Feb-06 21:16S 27°18' E 153°47'8 8.7
2016-Feb-06 20:21S 27°26' E 153°47'7 9.0
2016-Feb-06 19:33S 27°33' E 153°46'1110.5
2016-Feb-06 18:31S 27°43' E 153°44'1111.2
2016-Feb-06 17:33S 27°54' E 153°43'1211.5
2016-Feb-06 16:33S 28°06' E 153°43'248 9.8
2016-Feb-05 15:09S 32°08' E 152°46'16 9.9
2016-Feb-05 13:33S 32°24' E 152°41'1010.1
2016-Feb-05 12:33S 32°31' E 152°33'1111.4
2016-Feb-05 11:33S 32°40' E 152°25'1111.1
2016-Feb-05 10:33S 32°48' E 152°16'1111.1
2016-Feb-05 09:33S 32°53' E 152°04'10 9.9
2016-Feb-05 08:33S 32°57' E 151°53'5 5.5
2016-Feb-05 07:33S 32°55' E 151°47'2 1.7
2016-Feb-05 06:31S 32°54' E 151°46'0 0.0
2016-Feb-05 05:31S 32°54' E 151°46'0 0.0
2016-Feb-05 04:31S 32°54' E 151°46'0 0.0
2016-Feb-05 03:31S 32°54' E 151°46'0 0.0
2016-Feb-05 02:31S 32°54' E 151°46'0 0.0
2016-Feb-05 01:28S 32°54' E 151°46'0 0.0
2016-Feb-05 00:31S 32°54' E 151°46'0 0.0
2016-Feb-04 23:31S 32°54' E 151°46'0 0.0
2016-Feb-04 22:28S 32°54' E 151°46'0 0.0
2016-Feb-04 21:31S 32°54' E 151°46'0 0.0
2016-Feb-04 20:31S 32°54' E 151°46'0 0.0
2016-Feb-04 19:31S 32°54' E 151°46'0 0.0
2016-Feb-04 18:31S 32°54' E 151°46'0 0.0
2016-Feb-04 17:28S 32°54' E 151°46'0 0.0
2016-Feb-04 16:31S 32°54' E 151°46'0 0.0
2016-Feb-04 15:31S 32°54' E 151°46'0 0.0
2016-Feb-04 14:31S 32°54' E 151°46'0 0.0
2016-Feb-04 13:31S 32°54' E 151°46'0 0.0
2016-Feb-04 12:31S 32°54' E 151°46'0 0.0
2016-Feb-04 11:28S 32°54' E 151°46'0 0.0
2016-Feb-04 10:31S 32°54' E 151°46'0 0.0
2016-Feb-04 09:31S 32°54' E 151°46'0 0.0
2016-Feb-04 08:31S 32°54' E 151°46'0 0.0
2016-Feb-04 07:31S 32°54' E 151°46'0 0.0
2016-Feb-04 06:28S 32°54' E 151°46'0 0.0
2016-Feb-04 05:31S 32°54' E 151°46'0 0.0
2016-Feb-04 04:31S 32°54' E 151°46'0 0.0
2016-Feb-04 03:28S 32°54' E 151°46'0 0.0
2016-Feb-04 02:28S 32°54' E 151°46'0 0.0
2016-Feb-04 01:22S 32°54' E 151°46'0 0.0
2016-Feb-04 00:31S 32°54' E 151°46'0 0.0
2016-Feb-03 23:28S 32°54' E 151°46'0 0.0
2016-Feb-03 22:31S 32°54' E 151°46'0 0.0
2016-Feb-03 21:31S 32°54' E 151°46'0 0.0
2016-Feb-03 20:31S 32°54' E 151°46'0 0.0
2016-Feb-03 19:22S 32°54' E 151°46'0 0.0
2016-Feb-03 18:31S 32°54' E 151°46'0 0.0
2016-Feb-03 17:31S 32°54' E 151°46'0 0.0
2016-Feb-03 16:28S 32°54' E 151°46'0 0.0
2016-Feb-03 15:31S 32°54' E 151°46'0 0.0
2016-Feb-03 14:31S 32°54' E 151°46'0 0.0
2016-Feb-03 13:31S 32°54' E 151°46'0 0.0
2016-Feb-03 12:31S 32°54' E 151°46'0 0.0
2016-Feb-03 11:31S 32°54' E 151°46'0 0.0
2016-Feb-03 10:31S 32°54' E 151°46'0 0.0
2016-Feb-03 09:31S 32°54' E 151°46'0 0.0
2016-Feb-03 08:31S 32°54' E 151°46'0 0.0
2016-Feb-03 07:31S 32°54' E 151°46'0 0.0
2016-Feb-03 06:28S 32°54' E 151°46'0 0.0
2016-Feb-03 05:31S 32°54' E 151°46'0 0.0
2016-Feb-03 04:28S 32°54' E 151°46'0 0.0
2016-Feb-03 03:31S 32°54' E 151°46'0 0.0
2016-Feb-03 02:31S 32°54' E 151°46'0 0.0
2016-Feb-03 01:31S 32°54' E 151°46'0 0.0
2016-Feb-03 00:31S 32°54' E 151°46'0 0.0
2016-Feb-02 23:28S 32°54' E 151°46'0 0.0
2016-Feb-02 22:22S 32°54' E 151°46'0 0.0
2016-Feb-02 21:31S 32°54' E 151°46'0 0.0
2016-Feb-02 20:31S 32°54' E 151°46'0 0.0
2016-Feb-02 19:28S 32°54' E 151°46'0 0.0
2016-Feb-02 18:25S 32°54' E 151°46'0 0.0
2016-Feb-02 17:31S 32°54' E 151°46'0 0.1
2016-Feb-02 16:31S 32°54' E 151°46'0 0.1
2016-Feb-02 15:31S 32°54' E 151°46'0 0.0
2016-Feb-02 14:31S 32°54' E 151°46'0 0.0
2016-Feb-02 13:31S 32°54' E 151°46'0 0.0
2016-Feb-02 12:31S 32°54' E 151°46'0 0.0
2016-Feb-02 11:25S 32°54' E 151°46'0 0.0
2016-Feb-02 10:31S 32°54' E 151°46'0 0.0
2016-Feb-02 09:28S 32°54' E 151°46'0 0.0
2016-Feb-02 08:31S 32°54' E 151°46'0 0.0
2016-Feb-02 07:28S 32°54' E 151°46'0 0.0
2016-Feb-02 06:28S 32°54' E 151°46'0 0.0
2016-Feb-02 05:28S 32°54' E 151°46'0 0.0
2016-Feb-02 04:31S 32°54' E 151°46'0 0.0
2016-Feb-02 03:31S 32°54' E 151°46'0 0.0
2016-Feb-02 02:31S 32°54' E 151°46'0 0.0
2016-Feb-02 01:31S 32°54' E 151°46'0 0.0
2016-Feb-02 00:31S 32°54' E 151°46'0 0.0
2016-Feb-01 23:28S 32°54' E 151°46'0 0.0
2016-Feb-01 22:31S 32°54' E 151°46'0 0.0
2016-Feb-01 21:28S 32°54' E 151°46'0 0.0
2016-Feb-01 20:28S 32°54' E 151°46'0 0.0
2016-Feb-01 19:28S 32°54' E 151°46'0 0.0
2016-Feb-01 18:31S 32°54' E 151°46'0 0.0
2016-Feb-01 17:31S 32°54' E 151°46'0 0.0
2016-Feb-01 16:28S 32°54' E 151°46'0 0.0
2016-Feb-01 15:31S 32°54' E 151°46'0 0.0
2016-Feb-01 14:31S 32°54' E 151°46'0 0.0
2016-Feb-01 13:31S 32°54' E 151°46'0 0.0
2016-Feb-01 12:31S 32°54' E 151°46'0 0.0
2016-Feb-01 11:31S 32°54' E 151°46'0 0.0
2016-Feb-01 10:31S 32°54' E 151°46'0 0.0
2016-Feb-01 09:31S 32°54' E 151°46'0 0.0
2016-Feb-01 08:31S 32°54' E 151°46'0 0.0
2016-Feb-01 07:31S 32°54' E 151°46'0 0.0
2016-Feb-01 06:31S 32°54' E 151°46'0 0.0
2016-Feb-01 05:31S 32°54' E 151°46'0 0.0
2016-Feb-01 04:28S 32°54' E 151°46'0 0.0
2016-Feb-01 03:31S 32°54' E 151°46'0 0.0
2016-Jan-31 22:13S 32°54' E 151°46'0 0.0
2016-Jan-31 21:31S 32°54' E 151°46'0 0.0
2016-Jan-31 20:28S 32°54' E 151°46'0 0.0
2016-Jan-31 19:28S 32°54' E 151°46'0 0.0
2016-Jan-31 18:28S 32°54' E 151°46'0 0.0
2016-Jan-31 17:22S 32°54' E 151°46'0 0.0
2016-Jan-31 16:16S 32°54' E 151°46'0 0.0
2016-Jan-31 15:10S 32°54' E 151°46'0 0.0
2016-Jan-31 14:28S 32°54' E 151°46'0 0.0
2016-Jan-31 13:13S 32°54' E 151°46'0 0.0
2016-Jan-31 10:19S 32°54' E 151°46'0 0.0
2016-Jan-31 09:28S 32°54' E 151°46'0 0.0
2016-Jan-31 08:31S 32°54' E 151°46'0 0.0
2016-Jan-31 07:10S 32°54' E 151°46'0 0.0
2016-Jan-31 06:31S 32°54' E 151°46'0 0.0
2016-Jan-31 05:31S 32°54' E 151°46'0 0.0
2016-Jan-31 04:28S 32°54' E 151°46'0 0.0
2016-Jan-30 22:28S 32°54' E 151°46'0 0.0
2016-Jan-30 21:31S 32°54' E 151°46'0 0.0
2016-Jan-30 20:31S 32°54' E 151°46'0 0.0
2016-Jan-30 19:31S 32°54' E 151°46'0 0.0
2016-Jan-30 18:31S 32°54' E 151°46'0 0.0
2016-Jan-30 17:31S 32°54' E 151°46'0 0.0
2016-Jan-30 16:28S 32°54' E 151°46'0 0.0
2016-Jan-30 15:28S 32°54' E 151°46'0 0.0
2016-Jan-30 14:28S 32°54' E 151°46'0 0.0
2016-Jan-30 13:28S 32°54' E 151°46'0 0.0
2016-Jan-30 11:22S 32°54' E 151°46'0 0.0
2016-Jan-30 10:28S 32°54' E 151°46'0 0.0
2016-Jan-30 09:31S 32°54' E 151°46'0 0.0
2016-Jan-30 08:31S 32°54' E 151°46'0 0.0
2016-Jan-30 07:31S 32°54' E 151°46'0 0.0
2016-Jan-30 06:31S 32°54' E 151°46'0 0.0
2016-Jan-30 05:31S 32°54' E 151°46'0 0.0
2016-Jan-30 04:31S 32°54' E 151°46'0 0.0
2016-Jan-30 03:31S 32°54' E 151°46'0 0.0
2016-Jan-30 02:25S 32°54' E 151°46'0 0.0
2016-Jan-30 01:28S 32°54' E 151°46'0 0.0
2016-Jan-30 00:28S 32°54' E 151°46'0 0.0
2016-Jan-29 23:31S 32°54' E 151°46'0 0.0
2016-Jan-29 22:31S 32°54' E 151°46'0 0.0
2016-Jan-29 21:28S 32°54' E 151°46'0 0.0
2016-Jan-29 20:31S 32°54' E 151°46'0 0.0
2016-Jan-29 19:31S 32°54' E 151°46'0 0.0
2016-Jan-29 18:19S 32°54' E 151°46'0 0.0
2016-Jan-29 17:28S 32°54' E 151°46'0 0.0
2016-Jan-29 16:31S 32°54' E 151°46'0 0.0
2016-Jan-29 15:31S 32°54' E 151°46'0 0.0
2016-Jan-29 14:28S 32°54' E 151°46'0 0.0
2016-Jan-29 13:28S 32°54' E 151°46'0 0.0
2016-Jan-29 12:22S 32°54' E 151°46'0 0.0
2016-Jan-29 11:31S 32°54' E 151°46'0 0.0
2016-Jan-29 10:22S 32°54' E 151°46'0 0.0
2016-Jan-29 09:31S 32°54' E 151°46'0 0.0
2016-Jan-29 08:31S 32°54' E 151°46'0 0.0
2016-Jan-29 07:31S 32°54' E 151°46'0 0.0
2016-Jan-29 06:31S 32°54' E 151°46'0 0.0
2016-Jan-29 05:31S 32°54' E 151°46'0 0.0
2016-Jan-29 04:31S 32°54' E 151°46'0 0.0
2016-Jan-29 03:31S 32°54' E 151°46'0 0.0
2016-Jan-29 02:19S 32°54' E 151°46'0 0.0
2016-Jan-29 01:31S 32°54' E 151°46'0 0.0
2016-Jan-29 00:31S 32°54' E 151°46'0 0.0
2016-Jan-28 23:31S 32°54' E 151°46'0 0.0
2016-Jan-28 22:31S 32°54' E 151°46'0 0.0
2016-Jan-28 21:31S 32°54' E 151°46'0 0.0
2016-Jan-28 20:31S 32°54' E 151°46'0 0.0
2016-Jan-28 19:31S 32°54' E 151°46'0 0.0
2016-Jan-28 18:31S 32°54' E 151°46'0 0.0
2016-Jan-28 17:31S 32°54' E 151°46'0 0.0
2016-Jan-28 16:28S 32°54' E 151°46'0 0.0
2016-Jan-28 15:31S 32°54' E 151°46'0 0.0
2016-Jan-28 14:31S 32°54' E 151°46'0 0.0
2016-Jan-28 13:31S 32°54' E 151°46'0 0.0
2016-Jan-28 12:31S 32°54' E 151°46'0 0.0
2016-Jan-28 09:10S 32°54' E 151°46'0 0.0
2016-Jan-28 08:31S 32°54' E 151°46'0 0.0
2016-Jan-28 06:31S 32°54' E 151°46'0 0.0
2016-Jan-28 05:13S 32°54' E 151°46'0 0.0
2016-Jan-28 04:07S 32°54' E 151°46'0 0.0
2016-Jan-28 03:31S 32°54' E 151°46'0 0.0
2016-Jan-28 02:19S 32°54' E 151°46'  

Dump ship's entire track history